Aegean Viii — SXKO — position and weather

sailwx.info

Track history (hours):
 
Tides and Currents Weather Stations Pressure Air Temp Water Temp Dewpoint Dewpoint Depression Visibility Wind Speed Wind Dir Waves Ship Positions

Aegean Viii

Last reported at 2016-Apr-29 07:22 UTC. Time now 2016-May-03 08:49 UTC.
Position N 38°02' E 023°32'.

Length 75 m; draft 3.8 m.

Type: Tanker. MMSI: 240732000.

Date/timePositionNaut miles runAvg speedWind from/ knotsBaromVisibWave heightAir tempDewpointWater temp
2016-Apr-29 07:22N 38°02' E 023°32'0 0.0
2016-Apr-29 06:33N 38°02' E 023°32'0 0.0
2016-Apr-29 05:33N 38°02' E 023°32'0 0.0
2016-Apr-29 04:33N 38°02' E 023°32'0 0.0
2016-Apr-29 03:33N 38°02' E 023°32'0 0.0
2016-Apr-29 02:33N 38°02' E 023°32'0 0.0
2016-Apr-29 01:33N 38°02' E 023°32'6 6.1
2016-Apr-29 00:31N 37°58' E 023°26'9 9.4
2016-Apr-28 23:33N 37°56' E 023°15'10 9.4
2016-Apr-28 22:31N 37°54' E 023°02'16 7.9
2016-Apr-28 20:33N 38°03' E 022°46'13 9.3
2016-Apr-28 19:08N 38°09' E 022°31'6 9.7
2016-Apr-28 18:33N 38°12' E 022°24'1110.5
2016-Apr-28 17:32N 38°16' E 022°12'  
2016-Apr-25 03:11N 38°14' E 022°21'6 8.4
2016-Apr-25 02:27N 38°12' E 022°29'31 7.9
2016-Apr-24 22:33N 37°55' E 023°01'8 7.9
2016-Apr-24 21:33N 37°55' E 023°11'9 8.7
2016-Apr-24 20:33N 37°57' E 023°22'7 6.8
2016-Apr-24 19:34N 38°01' E 023°29'3 2.9
2016-Apr-24 18:33N 38°02' E 023°32'0 0.0
2016-Apr-24 17:34N 38°02' E 023°32'0 0.0
2016-Apr-24 16:33N 38°02' E 023°32'0 0.0
2016-Apr-23 17:33N 38°02' E 023°32'1 1.0
2016-Apr-23 16:33N 38°02' E 023°31'0 0.0
2016-Apr-23 15:34N 38°02' E 023°31'0 0.0
2016-Apr-23 14:33N 38°02' E 023°31'0 0.0
2016-Apr-23 13:33N 38°02' E 023°31'0 0.0
2016-Apr-23 12:33N 38°02' E 023°31'0 0.0
2016-Apr-23 11:33N 38°02' E 023°31'0 0.0
2016-Apr-23 10:33N 38°02' E 023°31'3 3.2
2016-Apr-23 09:33N 38°02' E 023°35'1 0.8
2016-Apr-23 08:33N 38°02' E 023°36'0 0.0
2016-Apr-23 07:33N 38°02' E 023°36'0 0.0
2016-Apr-23 06:33N 38°02' E 023°36'0 0.0
2016-Apr-23 05:33N 38°02' E 023°36'0 0.4
2016-Apr-23 04:33N 38°02' E 023°35'3 2.6
2016-Apr-23 03:33N 38°02' E 023°32'0 0.0
2016-Apr-23 02:33N 38°02' E 023°32'0 0.0
2016-Apr-22 14:24N 38°02' E 023°32'0 0.0
2016-Apr-22 13:33N 38°02' E 023°32'0 0.0
2016-Apr-22 12:34N 38°02' E 023°32'0 0.0
2016-Apr-22 11:33N 38°02' E 023°32'0 0.0
2016-Apr-22 10:33N 38°02' E 023°32'1 0.8
2016-Apr-22 09:34N 38°01' E 023°32'0 0.1
2016-Apr-22 08:33N 38°01' E 023°32'0 0.1
2016-Apr-22 07:34N 38°01' E 023°32'0 0.0
2016-Apr-22 06:34N 38°01' E 023°32'1 0.9
2016-Apr-22 05:33N 38°02' E 023°32'0 0.0
2016-Apr-21 12:22N 38°02' E 023°32'0 0.0
2016-Apr-21 11:33N 38°02' E 023°32'0 0.0
2016-Apr-21 10:33N 38°02' E 023°32'0 0.0
2016-Apr-21 09:33N 38°02' E 023°32'0 0.0
2016-Apr-21 08:33N 38°02' E 023°32'0 0.0
2016-Apr-21 07:34N 38°02' E 023°32'0 0.0
2016-Apr-21 06:33N 38°02' E 023°32'0 0.0
2016-Apr-21 05:33N 38°02' E 023°32'0 0.0
2016-Apr-21 04:33N 38°02' E 023°32'0 0.0
2016-Apr-20 11:20N 38°02' E 023°32'0 0.3
2016-Apr-20 10:33N 38°02' E 023°32'7 7.0
2016-Apr-20 09:34N 37°55' E 023°34'4 4.4
2016-Apr-20 08:34N 37°52' E 023°31'0 0.0
2016-Apr-20 07:34N 37°52' E 023°31'0 0.0
2016-Apr-20 06:33N 37°52' E 023°31'1 0.8
2016-Apr-20 05:34N 37°52' E 023°31'8 7.5
2016-Apr-20 04:34N 37°60' E 023°33'3 2.5
2016-Apr-20 03:34N 38°02' E 023°32'0 0.0
2016-Apr-19 17:11N 38°02' E 023°32'0 0.0
2016-Apr-19 16:33N 38°02' E 023°32'3 3.0
2016-Apr-19 15:33N 38°02' E 023°36'0 0.0
2016-Apr-19 14:34N 38°02' E 023°36'2 2.4
2016-Apr-19 13:33N 38°02' E 023°33'2 2.0
2016-Apr-19 12:33N 38°02' E 023°35'0 0.1
2016-Apr-19 11:33N 38°02' E 023°35'3 2.7
2016-Apr-19 10:34N 38°02' E 023°32'0 0.0
2016-Apr-19 09:33N 38°02' E 023°32'0 0.0
2016-Apr-19 08:33N 38°02' E 023°32'0 0.0
2016-Apr-19 07:34N 38°02' E 023°32'  
Track history (hours):
 
Tides and Currents Weather Stations Pressure Air Temp Water Temp Dewpoint Dewpoint Depression Visibility Wind Speed Wind Dir Waves Ship Positions

Aegean Viii

Last reported at 2016-Apr-29 07:22 UTC. Time now 2016-May-03 08:49 UTC.
Position N 38°02' E 023°32'.

Length 75 m; draft 3.8 m.

Type: Tanker. MMSI: 240732000.

Date/timePositionNaut miles runAvg speedWind from/ knotsBaromVisibWave heightAir tempDewpointWater temp
2016-Apr-29 07:22N 38°02' E 023°32'0 0.0
2016-Apr-29 06:33N 38°02' E 023°32'0 0.0
2016-Apr-29 05:33N 38°02' E 023°32'0 0.0
2016-Apr-29 04:33N 38°02' E 023°32'0 0.0
2016-Apr-29 03:33N 38°02' E 023°32'0 0.0
2016-Apr-29 02:33N 38°02' E 023°32'0 0.0
2016-Apr-29 01:33N 38°02' E 023°32'6 6.1
2016-Apr-29 00:31N 37°58' E 023°26'9 9.4
2016-Apr-28 23:33N 37°56' E 023°15'10 9.4
2016-Apr-28 22:31N 37°54' E 023°02'16 7.9
2016-Apr-28 20:33N 38°03' E 022°46'13 9.3
2016-Apr-28 19:08N 38°09' E 022°31'6 9.7
2016-Apr-28 18:33N 38°12' E 022°24'1110.5
2016-Apr-28 17:32N 38°16' E 022°12'  
2016-Apr-25 03:11N 38°14' E 022°21'6 8.4
2016-Apr-25 02:27N 38°12' E 022°29'31 7.9
2016-Apr-24 22:33N 37°55' E 023°01'8 7.9
2016-Apr-24 21:33N 37°55' E 023°11'9 8.7
2016-Apr-24 20:33N 37°57' E 023°22'7 6.8
2016-Apr-24 19:34N 38°01' E 023°29'3 2.9
2016-Apr-24 18:33N 38°02' E 023°32'0 0.0
2016-Apr-24 17:34N 38°02' E 023°32'0 0.0
2016-Apr-24 16:33N 38°02' E 023°32'0 0.0
2016-Apr-23 17:33N 38°02' E 023°32'1 1.0
2016-Apr-23 16:33N 38°02' E 023°31'0 0.0
2016-Apr-23 15:34N 38°02' E 023°31'0 0.0
2016-Apr-23 14:33N 38°02' E 023°31'0 0.0
2016-Apr-23 13:33N 38°02' E 023°31'0 0.0
2016-Apr-23 12:33N 38°02' E 023°31'0 0.0
2016-Apr-23 11:33N 38°02' E 023°31'0 0.0
2016-Apr-23 10:33N 38°02' E 023°31'3 3.2
2016-Apr-23 09:33N 38°02' E 023°35'1 0.8
2016-Apr-23 08:33N 38°02' E 023°36'0 0.0
2016-Apr-23 07:33N 38°02' E 023°36'0 0.0
2016-Apr-23 06:33N 38°02' E 023°36'0 0.0
2016-Apr-23 05:33N 38°02' E 023°36'0 0.4
2016-Apr-23 04:33N 38°02' E 023°35'3 2.6
2016-Apr-23 03:33N 38°02' E 023°32'0 0.0
2016-Apr-23 02:33N 38°02' E 023°32'0 0.0
2016-Apr-22 14:24N 38°02' E 023°32'0 0.0
2016-Apr-22 13:33N 38°02' E 023°32'0 0.0
2016-Apr-22 12:34N 38°02' E 023°32'0 0.0
2016-Apr-22 11:33N 38°02' E 023°32'0 0.0
2016-Apr-22 10:33N 38°02' E 023°32'1 0.8
2016-Apr-22 09:34N 38°01' E 023°32'0 0.1
2016-Apr-22 08:33N 38°01' E 023°32'0 0.1
2016-Apr-22 07:34N 38°01' E 023°32'0 0.0
2016-Apr-22 06:34N 38°01' E 023°32'1 0.9
2016-Apr-22 05:33N 38°02' E 023°32'0 0.0
2016-Apr-21 12:22N 38°02' E 023°32'0 0.0
2016-Apr-21 11:33N 38°02' E 023°32'0 0.0
2016-Apr-21 10:33N 38°02' E 023°32'0 0.0
2016-Apr-21 09:33N 38°02' E 023°32'0 0.0
2016-Apr-21 08:33N 38°02' E 023°32'0 0.0
2016-Apr-21 07:34N 38°02' E 023°32'0 0.0
2016-Apr-21 06:33N 38°02' E 023°32'0 0.0
2016-Apr-21 05:33N 38°02' E 023°32'0 0.0
2016-Apr-21 04:33N 38°02' E 023°32'0 0.0
2016-Apr-20 11:20N 38°02' E 023°32'0 0.3
2016-Apr-20 10:33N 38°02' E 023°32'7 7.0
2016-Apr-20 09:34N 37°55' E 023°34'4 4.4
2016-Apr-20 08:34N 37°52' E 023°31'0 0.0
2016-Apr-20 07:34N 37°52' E 023°31'0 0.0
2016-Apr-20 06:33N 37°52' E 023°31'1 0.8
2016-Apr-20 05:34N 37°52' E 023°31'8 7.5
2016-Apr-20 04:34N 37°60' E 023°33'3 2.5
2016-Apr-20 03:34N 38°02' E 023°32'0 0.0
2016-Apr-19 17:11N 38°02' E 023°32'0 0.0
2016-Apr-19 16:33N 38°02' E 023°32'3 3.0
2016-Apr-19 15:33N 38°02' E 023°36'0 0.0
2016-Apr-19 14:34N 38°02' E 023°36'2 2.4
2016-Apr-19 13:33N 38°02' E 023°33'2 2.0
2016-Apr-19 12:33N 38°02' E 023°35'0 0.1
2016-Apr-19 11:33N 38°02' E 023°35'3 2.7
2016-Apr-19 10:34N 38°02' E 023°32'0 0.0
2016-Apr-19 09:33N 38°02' E 023°32'0 0.0
2016-Apr-19 08:33N 38°02' E 023°32'0 0.0
2016-Apr-19 07:34N 38°02' E 023°32'  

Dump ship's entire track history